createdAt,value
2018-12-15T00:00:13.448Z,88.69
2018-12-15T00:01:13.445Z,87.74
2018-12-15T00:02:13.429Z,87.64
2018-12-15T00:03:13.420Z,87.99
2018-12-15T00:04:13.405Z,87.64
2018-12-15T00:05:13.395Z,87.01
2018-12-15T00:06:13.383Z,87.74
2018-12-15T00:07:13.377Z,88.31
2018-12-15T00:08:13.372Z,87.54
2018-12-15T00:09:13.358Z,88.17
2018-12-15T00:10:13.343Z,87.54
2018-12-15T00:11:13.331Z,87.26
2018-12-15T00:12:13.321Z,87.33
2018-12-15T00:13:13.310Z,87.43
2018-12-15T00:14:13.299Z,87.23
2018-12-15T00:15:13.288Z,86.70
2018-12-15T00:16:13.279Z,86.80
2018-12-15T00:17:13.268Z,86.85
2018-12-15T00:18:13.257Z,86.80
2018-12-15T00:19:13.255Z,87.12
2018-12-15T00:20:13.237Z,86.91
2018-12-15T00:21:13.243Z,87.01
2018-12-15T00:22:13.220Z,85.55
2018-12-15T00:23:13.209Z,85.44
2018-12-15T00:24:13.195Z,85.97
2018-12-15T00:25:13.183Z,85.55
2018-12-15T00:26:13.175Z,85.75
2018-12-15T00:27:13.168Z,85.24
2018-12-15T00:28:13.152Z,85.44
2018-12-15T00:29:13.145Z,85.65
2018-12-15T00:30:13.134Z,85.55
2018-12-15T00:31:13.120Z,85.34
2018-12-15T00:32:13.111Z,85.75
2018-12-15T00:33:13.100Z,85.02
2018-12-15T00:34:13.089Z,85.13
2018-12-15T00:35:13.084Z,85.02
2018-12-15T00:36:13.070Z,85.44
2018-12-15T00:37:13.058Z,85.13
2018-12-15T00:38:13.049Z,84.92
2018-12-15T00:39:13.037Z,84.81
2018-12-15T00:40:13.028Z,84.19
2018-12-15T00:41:13.016Z,83.77
2018-12-15T00:42:13.010Z,84.08
2018-12-15T00:43:12.994Z,84.39
2018-12-15T00:44:12.984Z,83.66
2018-12-15T00:45:12.976Z,82.82
2018-12-15T00:46:12.964Z,82.62
2018-12-15T00:47:13.906Z,83.45
2018-12-15T00:48:12.947Z,82.62
2018-12-15T00:49:12.932Z,82.40
2018-12-15T00:50:12.922Z,82.30
2018-12-15T00:51:12.914Z,82.03
2018-12-15T00:52:12.903Z,82.65
2018-12-15T00:53:12.891Z,80.83
2018-12-15T00:54:12.881Z,81.26
2018-12-15T00:55:12.873Z,81.99
2018-12-15T00:56:12.859Z,82.40
2018-12-15T00:57:12.848Z,81.88
2018-12-15T00:58:14.341Z,81.99
2018-12-15T00:59:12.829Z,80.31
2018-12-15T01:00:12.822Z,80.31
2018-12-15T01:01:12.807Z,79.90
2018-12-15T01:02:12.797Z,79.79
2018-12-15T01:03:12.791Z,80.10
2018-12-15T01:04:12.775Z,79.47
2018-12-15T01:05:12.767Z,80.31
2018-12-15T01:06:12.753Z,80.94
2018-12-15T01:07:12.748Z,80.52
2018-12-15T01:08:12.733Z,80.73
2018-12-15T01:09:12.721Z,81.04
2018-12-15T01:10:12.713Z,82.20
2018-12-15T01:11:12.701Z,80.94
2018-12-15T01:12:12.691Z,81.29
2018-12-15T01:13:12.682Z,81.67
2018-12-15T01:14:12.671Z,80.98
2018-12-15T01:15:12.660Z,81.36
2018-12-15T01:16:12.649Z,81.82
2018-12-15T01:17:12.644Z,81.15
2018-12-15T01:18:12.630Z,81.99
2018-12-15T01:19:12.622Z,80.94
2018-12-15T01:20:12.607Z,81.04
2018-12-15T01:21:12.601Z,81.88
2018-12-15T01:22:12.589Z,82.40
2018-12-15T01:23:12.576Z,83.03
2018-12-15T01:24:12.569Z,82.76
2018-12-15T01:25:12.555Z,82.93
2018-12-15T01:26:12.546Z,83.03
2018-12-15T01:27:12.534Z,82.82
2018-12-15T01:28:12.527Z,82.76
2018-12-15T01:29:12.514Z,82.45
2018-12-15T01:30:12.502Z,82.55
2018-12-15T01:31:12.492Z,82.45
2018-12-15T01:32:12.482Z,82.65
2018-12-15T01:33:12.471Z,82.62
2018-12-15T01:34:12.459Z,82.65
2018-12-15T01:35:12.451Z,82.76
2018-12-15T01:36:12.441Z,83.07
2018-12-15T01:37:12.431Z,83.39
2018-12-15T01:38:12.419Z,83.18
2018-12-15T01:39:12.409Z,82.97
2018-12-15T01:40:12.398Z,83.07
2018-12-15T01:41:12.390Z,83.18
2018-12-15T01:42:12.376Z,83.07
2018-12-15T01:43:12.366Z,82.72
2018-12-15T01:44:12.355Z,82.13
2018-12-15T01:45:12.345Z,82.76
2018-12-15T01:46:12.336Z,82.34
2018-12-15T01:47:12.326Z,81.92
2018-12-15T01:48:12.317Z,82.23
2018-12-15T01:49:12.304Z,82.45
2018-12-15T01:50:12.300Z,82.65
2018-12-15T01:51:12.288Z,82.13
2018-12-15T01:52:12.271Z,82.13
2018-12-15T01:53:12.263Z,82.45
2018-12-15T01:54:12.253Z,82.45
2018-12-15T01:55:12.240Z,83.07
2018-12-15T01:56:12.234Z,82.86
2018-12-15T01:57:12.220Z,82.55
2018-12-15T01:58:12.208Z,82.76
2018-12-15T01:59:12.200Z,82.55
2018-12-15T02:00:12.193Z,82.76
2018-12-15T02:01:12.178Z,82.65
2018-12-15T02:02:12.170Z,82.79
2018-12-15T02:03:12.159Z,82.76
2018-12-15T02:04:12.146Z,82.65
2018-12-15T02:05:12.141Z,82.55
2018-12-15T02:06:12.125Z,82.65
2018-12-15T02:07:12.115Z,82.97
2018-12-15T02:08:12.108Z,82.55
2018-12-15T02:09:12.097Z,81.82
2018-12-15T02:10:12.085Z,82.55
2018-12-15T02:11:12.080Z,82.34
2018-12-15T02:12:12.062Z,81.82
2018-12-15T02:13:12.055Z,82.03
2018-12-15T02:14:12.040Z,81.82
2018-12-15T02:15:12.031Z,81.82
2018-12-15T02:16:12.022Z,81.92
2018-12-15T02:17:12.015Z,81.92
2018-12-15T02:18:11.999Z,82.13
2018-12-15T02:19:11.993Z,82.13
2018-12-15T02:20:11.976Z,81.92
2018-12-15T02:21:11.969Z,81.92
2018-12-15T02:22:11.966Z,82.34
2018-12-15T02:23:11.948Z,81.82
2018-12-15T02:24:11.935Z,81.92
2018-12-15T02:25:11.926Z,82.65
2018-12-15T02:26:11.914Z,82.48
2018-12-15T02:27:11.907Z,81.82
2018-12-15T02:28:11.936Z,81.92
2018-12-15T02:29:11.883Z,81.82
2018-12-15T02:30:11.874Z,82.23
2018-12-15T02:31:11.865Z,82.76
2018-12-15T02:32:11.854Z,81.40
2018-12-15T02:33:11.844Z,81.19
2018-12-15T02:34:11.837Z,80.56
2018-12-15T02:35:11.824Z,81.29
2018-12-15T02:36:11.810Z,81.19
2018-12-15T02:37:11.802Z,81.50
2018-12-15T02:38:11.789Z,81.19
2018-12-15T02:39:11.779Z,81.50
2018-12-15T02:40:11.769Z,81.50
2018-12-15T02:41:11.759Z,81.92
2018-12-15T02:42:11.747Z,80.87
2018-12-15T02:43:11.738Z,80.98
2018-12-15T02:44:11.726Z,80.66
2018-12-15T02:45:11.716Z,80.46
2018-12-15T02:46:11.729Z,80.14
2018-12-15T02:47:11.693Z,79.41
2018-12-15T02:48:11.689Z,79.20
2018-12-15T02:49:11.676Z,79.30
2018-12-15T02:50:11.989Z,78.88
2018-12-15T02:51:11.653Z,78.88
2018-12-15T02:52:11.647Z,78.57
2018-12-15T02:53:11.630Z,78.36
2018-12-15T02:54:11.620Z,78.67
2018-12-15T02:55:11.614Z,78.78
2018-12-15T02:56:11.605Z,78.15
2018-12-15T02:57:11.591Z,77.42
2018-12-15T02:58:11.591Z,77.73
2018-12-15T02:59:11.568Z,78.36
2018-12-15T03:00:11.560Z,78.36
2018-12-15T03:01:11.551Z,78.25
2018-12-15T03:02:11.542Z,76.16
2018-12-15T03:03:11.528Z,76.16
2018-12-15T03:04:11.519Z,76.57
2018-12-15T03:05:11.506Z,76.16
2018-12-15T03:06:11.495Z,76.33
2018-12-15T03:07:11.485Z,76.68
2018-12-15T03:08:11.474Z,76.26
2018-12-15T03:09:11.464Z,76.57
2018-12-15T03:10:11.456Z,75.63
2018-12-15T03:11:11.441Z,76.89
2018-12-15T03:12:11.436Z,75.43
2018-12-15T03:13:11.427Z,76.02
2018-12-15T03:14:11.412Z,76.16
2018-12-15T03:15:11.399Z,74.55
2018-12-15T03:16:11.396Z,74.80
2018-12-15T03:17:11.381Z,75.53
2018-12-15T03:18:11.372Z,75.08
2018-12-15T03:19:11.363Z,74.97
2018-12-15T03:20:11.348Z,74.90
2018-12-15T03:21:11.338Z,74.97
2018-12-15T03:22:11.331Z,76.12
2018-12-15T03:23:11.322Z,75.32
2018-12-15T03:24:11.306Z,74.55
2018-12-15T03:25:11.297Z,74.76
2018-12-15T03:26:11.291Z,74.76
2018-12-15T03:27:11.276Z,74.55
2018-12-15T03:28:11.272Z,74.58
2018-12-15T03:29:11.254Z,74.76
2018-12-15T03:30:11.362Z,74.34
2018-12-15T03:31:11.247Z,74.17
2018-12-15T03:32:11.234Z,74.55
2018-12-15T03:33:11.235Z,74.13
2018-12-15T03:34:11.201Z,73.82
2018-12-15T03:35:11.192Z,74.45
2018-12-15T03:36:11.179Z,73.30
2018-12-15T03:37:11.169Z,73.40
2018-12-15T03:38:11.164Z,73.40
2018-12-15T03:39:11.149Z,73.19
2018-12-15T03:40:11.138Z,73.50
2018-12-15T03:41:11.148Z,73.72
2018-12-15T03:42:11.119Z,73.61
2018-12-15T03:43:11.105Z,73.40
2018-12-15T03:44:11.097Z,74.34
2018-12-15T03:45:11.083Z,74.03
2018-12-15T03:46:11.076Z,74.27
2018-12-15T03:47:11.068Z,74.24
2018-12-15T03:48:11.086Z,74.24
2018-12-15T03:49:11.043Z,73.93
2018-12-15T03:50:11.040Z,74.87
2018-12-15T03:51:11.024Z,75.08
2018-12-15T03:52:11.021Z,74.76
2018-12-15T03:53:11.000Z,74.66
2018-12-15T03:54:10.991Z,74.34
2018-12-15T03:55:10.979Z,74.76
2018-12-15T03:56:10.970Z,74.34
2018-12-15T03:57:10.959Z,75.49
2018-12-15T03:58:10.949Z,74.87
2018-12-15T03:59:10.940Z,74.97
2018-12-15T04:00:10.929Z,74.45
2018-12-15T04:01:10.923Z,74.66
2018-12-15T04:02:10.908Z,74.45
2018-12-15T04:03:10.908Z,74.66
2018-12-15T04:04:10.884Z,74.03
2018-12-15T04:05:10.877Z,74.76
2018-12-15T04:06:10.869Z,74.76
2018-12-15T04:07:10.860Z,74.76
2018-12-15T04:08:10.846Z,74.87
2018-12-15T04:09:10.839Z,74.27
2018-12-15T04:10:10.839Z,74.76
2018-12-15T04:11:10.816Z,75.29
2018-12-15T04:12:10.805Z,74.24
2018-12-15T04:13:10.790Z,75.08
2018-12-15T04:14:10.782Z,74.66
2018-12-15T04:15:10.769Z,74.76
2018-12-15T04:16:10.761Z,74.66
2018-12-15T04:17:10.750Z,74.87
2018-12-15T04:18:10.741Z,75.01
2018-12-15T04:19:10.728Z,74.80
2018-12-15T04:20:10.718Z,74.97
2018-12-15T04:21:10.713Z,75.63
2018-12-15T04:22:10.763Z,76.16
2018-12-15T04:23:10.689Z,75.29
2018-12-15T04:24:10.676Z,75.49
2018-12-15T04:25:10.666Z,75.29
2018-12-15T04:26:10.661Z,75.84
2018-12-15T04:27:10.649Z,75.63
2018-12-15T04:28:10.636Z,75.74
2018-12-15T04:29:10.631Z,75.21
2018-12-15T04:30:10.615Z,75.60
2018-12-15T04:31:10.607Z,75.39
2018-12-15T04:32:10.592Z,75.29
2018-12-15T04:33:10.583Z,75.29
2018-12-15T04:34:10.574Z,76.12
2018-12-15T04:35:10.559Z,75.29
2018-12-15T04:36:10.552Z,75.39
2018-12-15T04:37:10.542Z,75.32
2018-12-15T04:38:10.528Z,75.29
2018-12-15T04:39:10.521Z,74.90
2018-12-15T04:40:10.507Z,75.39
2018-12-15T04:41:10.496Z,75.29
2018-12-15T04:42:10.488Z,75.49
2018-12-15T04:43:10.476Z,75.39
2018-12-15T04:44:10.468Z,75.81
2018-12-15T04:45:10.459Z,75.81
2018-12-15T04:46:10.444Z,76.02
2018-12-15T04:47:10.434Z,76.44
2018-12-15T04:48:11.307Z,76.23
2018-12-15T04:49:10.414Z,76.44
2018-12-15T04:50:10.401Z,75.92
2018-12-15T04:51:10.393Z,76.12
2018-12-15T04:52:10.381Z,76.44
2018-12-15T04:53:10.375Z,76.12
2018-12-15T04:54:10.367Z,76.33
2018-12-15T04:55:10.351Z,76.23
2018-12-15T04:56:10.339Z,76.54
2018-12-15T04:57:10.330Z,76.16
2018-12-15T04:58:10.320Z,76.23
2018-12-15T04:59:10.346Z,76.23
2018-12-15T05:00:10.329Z,76.33
2018-12-15T05:01:10.287Z,77.20
2018-12-15T05:02:10.279Z,77.73
2018-12-15T05:03:10.270Z,78.36
2018-12-15T05:04:10.257Z,78.36
2018-12-15T05:05:10.244Z,77.59
2018-12-15T05:06:10.239Z,77.69
2018-12-15T05:07:10.231Z,78.32
2018-12-15T05:08:10.215Z,78.22
2018-12-15T05:09:10.201Z,78.32
2018-12-15T05:10:10.193Z,78.01
2018-12-15T05:11:10.183Z,77.80
2018-12-15T05:12:10.173Z,77.83
2018-12-15T05:13:10.168Z,78.57
2018-12-15T05:14:10.150Z,78.74
2018-12-15T05:15:10.139Z,78.32
2018-12-15T05:16:10.129Z,78.25
2018-12-15T05:17:10.165Z,78.25
2018-12-15T05:18:10.110Z,78.15
2018-12-15T05:19:10.099Z,78.67
2018-12-15T05:20:10.089Z,78.46
2018-12-15T05:21:10.080Z,78.57
2018-12-15T05:22:10.125Z,78.78
2018-12-15T05:23:10.056Z,78.43
2018-12-15T05:24:10.045Z,78.25
2018-12-15T05:25:10.038Z,78.53
2018-12-15T05:26:10.023Z,78.78
2018-12-15T05:27:10.013Z,78.57
2018-12-15T05:28:10.003Z,78.88
2018-12-15T05:29:09.998Z,79.20
2018-12-15T05:30:09.987Z,79.20
2018-12-15T05:31:09.973Z,79.41
2018-12-15T05:32:09.964Z,79.61
2018-12-15T05:33:09.949Z,79.51
2018-12-15T05:34:09.940Z,79.72
2018-12-15T05:35:09.929Z,80.52
2018-12-15T05:36:09.934Z,80.66
2018-12-15T05:37:09.910Z,79.83
2018-12-15T05:38:09.900Z,79.61
2018-12-15T05:39:09.888Z,79.30
2018-12-15T05:40:09.881Z,79.61
2018-12-15T05:41:09.867Z,79.72
2018-12-15T05:42:09.859Z,79.83
2018-12-15T05:43:09.850Z,80.04
2018-12-15T05:44:09.836Z,80.66
2018-12-15T05:45:09.829Z,80.87
2018-12-15T05:46:09.817Z,80.66
2018-12-15T05:47:09.803Z,80.56
2018-12-15T05:48:09.797Z,80.24
2018-12-15T05:49:09.786Z,80.98
2018-12-15T05:50:09.777Z,80.77
2018-12-15T05:51:09.769Z,80.77
2018-12-15T05:52:09.757Z,80.35
2018-12-15T05:53:09.744Z,80.87
2018-12-15T05:54:09.733Z,80.66
2018-12-15T05:55:09.726Z,80.35
2018-12-15T05:56:09.715Z,80.56
2018-12-15T05:57:09.703Z,81.29
2018-12-15T05:58:09.689Z,81.60
2018-12-15T05:59:09.679Z,81.08
2018-12-15T06:00:09.671Z,81.60
2018-12-15T06:01:09.661Z,81.19
2018-12-15T06:02:09.649Z,82.23
2018-12-15T06:03:09.638Z,82.23
2018-12-15T06:04:09.637Z,81.92
2018-12-15T06:05:09.621Z,81.40
2018-12-15T06:06:09.610Z,81.40
2018-12-15T06:07:09.599Z,81.71
2018-12-15T06:08:09.586Z,81.82
2018-12-15T06:09:09.578Z,81.60
2018-12-15T06:10:09.564Z,82.13
2018-12-15T06:11:09.552Z,81.92
2018-12-15T06:12:09.542Z,82.03
2018-12-15T06:13:09.535Z,82.13
2018-12-15T06:14:09.520Z,82.03
2018-12-15T06:15:09.512Z,81.92
2018-12-15T06:16:09.499Z,82.03
2018-12-15T06:17:09.490Z,82.03
2018-12-15T06:18:09.480Z,82.34
2018-12-15T06:19:09.468Z,82.65
2018-12-15T06:20:09.459Z,82.76
2018-12-15T06:21:09.447Z,82.76
2018-12-15T06:22:09.438Z,82.86
2018-12-15T06:23:09.433Z,82.97
2018-12-15T06:24:09.421Z,82.86
2018-12-15T06:25:09.409Z,82.86
2018-12-15T06:26:09.396Z,82.65
2018-12-15T06:27:09.383Z,83.07
2018-12-15T06:28:09.375Z,82.76
2018-12-15T06:29:09.368Z,82.86
2018-12-15T06:30:09.354Z,83.59
2018-12-15T06:31:09.852Z,83.39
2018-12-15T06:32:09.334Z,83.07
2018-12-15T06:33:09.321Z,83.07
2018-12-15T06:34:09.312Z,82.97
2018-12-15T06:35:09.299Z,83.07
2018-12-15T06:36:09.292Z,83.39
2018-12-15T06:37:09.280Z,83.59
2018-12-15T06:38:09.275Z,83.59
2018-12-15T06:39:09.258Z,83.07
2018-12-15T06:40:09.250Z,83.49
2018-12-15T06:41:09.245Z,83.28
2018-12-15T06:42:09.228Z,83.81
2018-12-15T06:43:09.222Z,83.70
2018-12-15T06:44:09.208Z,83.59
2018-12-15T06:45:09.199Z,84.22
2018-12-15T06:46:09.189Z,83.91
2018-12-15T06:47:09.175Z,84.12
2018-12-15T06:48:09.164Z,84.54
2018-12-15T06:49:09.155Z,83.59
2018-12-15T06:50:09.143Z,83.49
2018-12-15T06:51:09.133Z,83.59
2018-12-15T06:52:09.121Z,84.54
2018-12-15T06:53:09.112Z,84.01
2018-12-15T06:54:09.104Z,84.44
2018-12-15T06:55:09.090Z,84.44
2018-12-15T06:56:09.081Z,84.44
2018-12-15T06:57:09.071Z,83.81
2018-12-15T06:58:09.057Z,84.54
2018-12-15T06:59:09.050Z,84.44
2018-12-15T07:00:09.040Z,84.01
2018-12-15T07:01:09.030Z,84.12
2018-12-15T07:02:09.016Z,84.33
2018-12-15T07:03:09.009Z,84.12
2018-12-15T07:04:09.002Z,84.33
2018-12-15T07:05:08.989Z,84.33
2018-12-15T07:06:08.975Z,84.22
2018-12-15T07:07:08.965Z,85.06
2018-12-15T07:08:08.955Z,84.54
2018-12-15T07:09:08.943Z,84.44
2018-12-15T07:10:08.935Z,84.12
2018-12-15T07:11:08.921Z,84.33
2018-12-15T07:12:08.914Z,84.33
2018-12-15T07:13:08.905Z,84.33
2018-12-15T07:14:08.891Z,84.12
2018-12-15T07:15:08.880Z,84.75
2018-12-15T07:16:08.871Z,85.38
2018-12-15T07:17:08.872Z,84.96
2018-12-15T07:18:08.850Z,84.64
2018-12-15T07:19:08.838Z,84.64
2018-12-15T07:20:08.827Z,85.38
2018-12-15T07:21:08.818Z,84.96
2018-12-15T07:22:08.806Z,85.27
2018-12-15T07:23:08.797Z,85.59
2018-12-15T07:24:08.792Z,84.96
2018-12-15T07:25:09.498Z,85.27
2018-12-15T07:26:08.765Z,85.27
2018-12-15T07:27:08.753Z,85.27
2018-12-15T07:28:08.750Z,85.38
2018-12-15T07:29:08.733Z,85.17
2018-12-15T07:30:08.725Z,85.27
2018-12-15T07:31:08.717Z,85.59
2018-12-15T07:32:08.704Z,85.17
2018-12-15T07:33:08.697Z,85.48
2018-12-15T07:34:08.687Z,85.38
2018-12-15T07:35:08.675Z,85.59
2018-12-15T07:36:08.661Z,85.48
2018-12-15T07:37:08.651Z,85.48
2018-12-15T07:38:08.644Z,85.06
2018-12-15T07:39:08.635Z,84.85
2018-12-15T07:40:08.627Z,85.34
2018-12-15T07:41:08.605Z,85.38
2018-12-15T07:42:08.599Z,85.27
2018-12-15T07:43:08.588Z,85.59
2018-12-15T07:44:08.577Z,85.75
2018-12-15T07:45:08.568Z,85.38
2018-12-15T07:46:08.553Z,85.48
2018-12-15T07:47:08.544Z,85.80
2018-12-15T07:48:08.535Z,85.38
2018-12-15T07:49:08.531Z,85.59
2018-12-15T07:50:08.517Z,85.69
2018-12-15T07:51:08.502Z,85.59
2018-12-15T07:52:08.490Z,85.06
2018-12-15T07:53:08.490Z,84.81
2018-12-15T07:54:08.474Z,85.86
2018-12-15T07:55:08.466Z,85.65
2018-12-15T07:56:08.463Z,85.34
2018-12-15T07:57:08.441Z,86.07
2018-12-15T07:58:08.432Z,85.55
2018-12-15T07:59:08.423Z,85.80
2018-12-15T08:00:08.413Z,85.44
2018-12-15T08:01:08.399Z,85.80
2018-12-15T08:02:08.386Z,85.59
2018-12-15T08:03:08.377Z,85.65
2018-12-15T08:04:08.365Z,85.80
2018-12-15T08:05:08.363Z,85.69
2018-12-15T08:06:08.343Z,85.55
2018-12-15T08:07:08.333Z,85.65
2018-12-15T08:08:08.324Z,85.02
2018-12-15T08:09:08.312Z,85.55
2018-12-15T08:10:08.302Z,85.34
2018-12-15T08:11:08.294Z,85.65
2018-12-15T08:12:08.282Z,85.55
2018-12-15T08:13:08.276Z,85.24
2018-12-15T08:14:08.261Z,85.55
2018-12-15T08:15:08.251Z,85.44
2018-12-15T08:16:08.242Z,85.34
2018-12-15T08:17:08.230Z,85.34
2018-12-15T08:18:08.218Z,85.55
2018-12-15T08:19:08.208Z,85.44
2018-12-15T08:20:08.199Z,85.65
2018-12-15T08:21:08.188Z,85.41
2018-12-15T08:22:08.178Z,85.72
2018-12-15T08:23:08.168Z,85.51
2018-12-15T08:24:08.154Z,84.92
2018-12-15T08:25:08.143Z,84.99
2018-12-15T08:26:08.137Z,85.65
2018-12-15T08:27:08.129Z,84.88
2018-12-15T08:28:08.114Z,85.34
2018-12-15T08:29:08.104Z,85.30
2018-12-15T08:30:08.093Z,85.41
2018-12-15T08:31:08.082Z,85.34
2018-12-15T08:32:08.079Z,85.41
2018-12-15T08:33:08.065Z,84.99
2018-12-15T08:34:08.049Z,85.72
2018-12-15T08:35:08.038Z,84.99
2018-12-15T08:36:08.035Z,85.09
2018-12-15T08:37:08.017Z,85.09
2018-12-15T08:38:08.008Z,85.72
2018-12-15T08:39:08.002Z,86.04
2018-12-15T08:40:07.984Z,85.61
2018-12-15T08:41:07.977Z,85.19
2018-12-15T08:42:07.964Z,85.09
2018-12-15T08:43:07.955Z,85.19
2018-12-15T08:44:07.948Z,85.09
2018-12-15T08:45:07.942Z,85.19
2018-12-15T08:46:07.922Z,84.99
2018-12-15T08:47:07.915Z,85.19
2018-12-15T08:48:07.906Z,84.99
2018-12-15T08:49:07.891Z,85.19
2018-12-15T08:50:07.882Z,85.72
2018-12-15T08:51:07.873Z,85.19
2018-12-15T08:52:07.860Z,85.09
2018-12-15T08:53:07.848Z,85.51
2018-12-15T08:54:07.841Z,85.41
2018-12-15T08:55:07.828Z,85.30
2018-12-15T08:56:07.818Z,85.19
2018-12-15T08:57:07.808Z,84.99
2018-12-15T08:58:07.796Z,84.74
2018-12-15T08:59:07.789Z,84.99
2018-12-15T09:00:07.778Z,84.84
2018-12-15T09:01:07.764Z,84.46
2018-12-15T09:02:07.754Z,84.74
2018-12-15T09:03:07.744Z,85.05
2018-12-15T09:04:07.731Z,84.74
2018-12-15T09:05:07.723Z,84.53
2018-12-15T09:06:07.713Z,84.32
2018-12-15T09:07:07.700Z,84.42
2018-12-15T09:08:07.692Z,84.53
2018-12-15T09:09:07.681Z,85.58
2018-12-15T09:10:07.674Z,85.16
2018-12-15T09:11:07.662Z,84.42
2018-12-15T09:12:07.661Z,84.42
2018-12-15T09:13:07.637Z,85.05
2018-12-15T09:14:07.628Z,84.53
2018-12-15T09:15:07.619Z,84.22
2018-12-15T09:16:07.611Z,84.63
2018-12-15T09:17:07.598Z,85.58
2018-12-15T09:18:07.589Z,84.00
2018-12-15T09:19:11.244Z,83.97
2018-12-15T09:20:07.566Z,83.76
2018-12-15T09:21:07.554Z,84.11
2018-12-15T09:22:11.465Z,84.00
2018-12-15T09:23:07.535Z,84.11
2018-12-15T09:24:07.532Z,84.49
2018-12-15T09:25:07.516Z,84.22
2018-12-15T09:26:07.506Z,84.17
2018-12-15T09:27:07.628Z,84.39
2018-12-15T09:28:07.495Z,83.86
2018-12-15T09:29:07.472Z,84.17
2018-12-15T09:30:07.460Z,84.17
2018-12-15T09:31:07.450Z,84.49
2018-12-15T09:32:07.437Z,84.22
2018-12-15T09:33:07.427Z,83.97
2018-12-15T09:34:07.445Z,84.00
2018-12-15T09:35:07.478Z,84.07
2018-12-15T09:36:07.420Z,84.59
2018-12-15T09:37:07.391Z,84.28
2018-12-15T09:38:07.423Z,84.24
2018-12-15T09:39:07.365Z,83.93
2018-12-15T09:40:07.353Z,83.76
2018-12-15T09:41:07.343Z,83.40
2018-12-15T09:42:07.331Z,83.09
2018-12-15T09:43:07.321Z,83.40
2018-12-15T09:44:07.524Z,83.83
2018-12-15T09:45:07.300Z,83.40
2018-12-15T09:46:07.290Z,83.93
2018-12-15T09:47:07.279Z,83.62
2018-12-15T09:48:07.276Z,83.30
2018-12-15T09:49:07.258Z,83.93
2018-12-15T09:50:07.248Z,83.62
2018-12-15T09:51:07.237Z,83.62
2018-12-15T09:52:07.227Z,83.40
2018-12-15T09:53:07.215Z,83.83
2018-12-15T09:54:07.206Z,83.62
2018-12-15T09:55:07.205Z,83.40
2018-12-15T09:56:07.187Z,83.51
2018-12-15T09:57:07.174Z,83.62
2018-12-15T09:58:07.174Z,83.93
2018-12-15T09:59:07.152Z,83.30
2018-12-15T10:00:07.145Z,83.97
2018-12-15T10:01:07.131Z,83.86
2018-12-15T10:02:07.123Z,84.24
2018-12-15T10:03:07.110Z,84.17
2018-12-15T10:04:07.107Z,84.17
2018-12-15T10:05:07.092Z,83.97
2018-12-15T10:06:07.077Z,83.97
2018-12-15T10:07:07.071Z,83.97
2018-12-15T10:08:07.057Z,84.28
2018-12-15T10:09:07.052Z,84.28
2018-12-15T10:10:07.037Z,84.07
2018-12-15T10:11:07.025Z,84.80
2018-12-15T10:12:07.017Z,85.12
2018-12-15T10:13:07.025Z,85.33
2018-12-15T10:14:07.000Z,84.17
2018-12-15T10:15:07.025Z,84.28
2018-12-15T10:16:06.973Z,85.22
2018-12-15T10:17:06.963Z,85.53
2018-12-15T10:18:06.951Z,85.01
2018-12-15T10:19:06.944Z,85.12
2018-12-15T10:20:06.931Z,85.26
2018-12-15T10:21:06.920Z,84.59
2018-12-15T10:22:06.908Z,85.50
2018-12-15T10:23:06.901Z,84.80
2018-12-15T10:24:06.890Z,85.01
2018-12-15T10:25:06.881Z,85.12
2018-12-15T10:26:06.867Z,84.97
2018-12-15T10:27:06.860Z,84.87
2018-12-15T10:28:06.846Z,85.12
2018-12-15T10:29:06.839Z,85.53
2018-12-15T10:30:06.839Z,84.80
2018-12-15T10:31:06.829Z,84.87
2018-12-15T10:32:06.804Z,84.80
2018-12-15T10:33:06.794Z,84.97
2018-12-15T10:34:06.784Z,84.97
2018-12-15T10:35:06.773Z,85.43
2018-12-15T10:36:06.768Z,84.91
2018-12-15T10:37:06.753Z,84.87
2018-12-15T10:38:06.742Z,85.08
2018-12-15T10:39:06.730Z,85.50
2018-12-15T10:40:06.720Z,84.97
2018-12-15T10:41:06.715Z,84.34
2018-12-15T10:42:06.699Z,85.50
2018-12-15T10:43:06.688Z,85.39
2018-12-15T10:44:06.677Z,85.08
2018-12-15T10:45:06.668Z,84.56
2018-12-15T10:46:06.656Z,85.46
2018-12-15T10:47:06.648Z,84.45
2018-12-15T10:48:06.635Z,84.24
2018-12-15T10:49:06.625Z,84.24
2018-12-15T10:50:06.616Z,85.50
2018-12-15T10:51:06.605Z,84.03
2018-12-15T10:52:06.595Z,85.60
2018-12-15T10:53:06.586Z,84.45
2018-12-15T10:54:06.576Z,84.56
2018-12-15T10:55:06.565Z,85.50
2018-12-15T10:56:06.554Z,85.08
2018-12-15T10:57:06.543Z,85.29
2018-12-15T10:58:06.532Z,85.08
2018-12-15T10:59:06.522Z,84.87
2018-12-15T11:00:06.510Z,84.83
2018-12-15T11:01:06.499Z,85.04
2018-12-15T11:02:06.491Z,84.41
2018-12-15T11:03:06.480Z,83.93
2018-12-15T11:04:06.466Z,84.14
2018-12-15T11:05:06.455Z,84.34
2018-12-15T11:06:06.451Z,84.14
2018-12-15T11:07:06.436Z,84.41
2018-12-15T11:08:06.426Z,85.46
2018-12-15T11:09:06.417Z,85.14
2018-12-15T11:10:06.413Z,84.24
2018-12-15T11:11:06.394Z,84.20
2018-12-15T11:12:06.383Z,84.41
2018-12-15T11:13:06.371Z,84.41
2018-12-15T11:14:06.362Z,84.24
2018-12-15T11:15:06.350Z,85.08
2018-12-15T11:16:06.342Z,84.77
2018-12-15T11:17:06.330Z,85.18
2018-12-15T11:18:06.321Z,85.18
2018-12-15T11:19:06.309Z,84.77
2018-12-15T11:20:06.304Z,85.08
2018-12-15T11:21:06.289Z,84.31
2018-12-15T11:22:06.284Z,84.45
2018-12-15T11:23:06.269Z,83.93
2018-12-15T11:24:06.257Z,84.94
2018-12-15T11:25:06.251Z,83.89
2018-12-15T11:26:06.315Z,84.20
2018-12-15T11:27:06.234Z,83.78
2018-12-15T11:28:06.217Z,83.16
2018-12-15T11:29:06.205Z,83.37
2018-12-15T11:30:06.248Z,83.58
2018-12-15T11:31:06.187Z,83.58
2018-12-15T11:32:06.176Z,83.64
2018-12-15T11:33:06.164Z,82.81
2018-12-15T11:34:06.152Z,83.01
2018-12-15T11:35:06.145Z,83.12
2018-12-15T11:36:06.134Z,83.33
2018-12-15T11:37:06.119Z,83.23
2018-12-15T11:38:06.109Z,83.33
2018-12-15T11:39:06.098Z,83.44
2018-12-15T11:40:06.088Z,83.33
2018-12-15T11:41:06.079Z,83.01
2018-12-15T11:42:06.069Z,83.23
2018-12-15T11:43:06.056Z,83.01
2018-12-15T11:44:06.045Z,83.23
2018-12-15T11:45:06.036Z,83.12
2018-12-15T11:46:06.026Z,83.12
2018-12-15T11:47:06.015Z,82.91
2018-12-15T11:48:06.004Z,83.01
2018-12-15T11:49:05.994Z,82.91
2018-12-15T11:50:05.985Z,82.95
2018-12-15T11:51:05.973Z,82.91
2018-12-15T11:52:05.963Z,82.50
2018-12-15T11:53:05.951Z,83.16
2018-12-15T11:54:05.939Z,83.33
2018-12-15T11:55:05.933Z,83.85
2018-12-15T11:56:05.918Z,83.12
2018-12-15T11:57:05.909Z,83.12
2018-12-15T11:58:05.910Z,83.44
2018-12-15T11:59:05.896Z,84.17
2018-12-15T12:00:05.879Z,83.85
2018-12-15T12:01:05.867Z,83.12
2018-12-15T12:02:05.859Z,83.01
2018-12-15T12:03:05.849Z,83.71
2018-12-15T12:04:05.842Z,83.23
2018-12-15T12:05:05.826Z,82.98
2018-12-15T12:06:05.823Z,82.87
2018-12-15T12:07:05.809Z,83.01
2018-12-15T12:08:05.796Z,82.50
2018-12-15T12:09:05.784Z,82.87
2018-12-15T12:10:05.776Z,82.81
2018-12-15T12:11:05.761Z,82.81
2018-12-15T12:12:05.758Z,82.81
2018-12-15T12:13:05.743Z,83.23
2018-12-15T12:14:05.734Z,83.54
2018-12-15T12:15:05.722Z,83.64
2018-12-15T12:16:05.710Z,83.18
2018-12-15T12:17:05.703Z,82.60
2018-12-15T12:18:05.693Z,83.29
2018-12-15T12:19:05.682Z,82.67
2018-12-15T12:20:05.666Z,82.56
2018-12-15T12:21:05.657Z,83.12
2018-12-15T12:22:05.647Z,83.23
2018-12-15T12:23:05.635Z,83.95
2018-12-15T12:24:05.622Z,83.33
2018-12-15T12:25:05.616Z,83.23
2018-12-15T12:26:05.601Z,82.98
2018-12-15T12:27:05.592Z,83.23
2018-12-15T12:28:05.585Z,83.29
2018-12-15T12:29:05.570Z,83.18
2018-12-15T12:30:05.567Z,82.87
2018-12-15T12:31:05.553Z,83.29
2018-12-15T12:32:05.537Z,83.40
2018-12-15T12:33:05.528Z,82.91
2018-12-15T12:34:05.520Z,82.91
2018-12-15T12:35:05.511Z,83.33
2018-12-15T12:36:05.504Z,82.91
2018-12-15T12:37:05.489Z,83.33
2018-12-15T12:38:05.480Z,83.40
2018-12-15T12:39:05.466Z,83.23
2018-12-15T12:40:05.461Z,84.27
2018-12-15T12:41:05.445Z,83.12
2018-12-15T12:42:05.432Z,83.61
2018-12-15T12:43:05.422Z,84.23
2018-12-15T12:44:05.412Z,83.75
2018-12-15T12:45:05.405Z,83.12
2018-12-15T12:46:05.390Z,82.81
2018-12-15T12:47:05.380Z,83.29
2018-12-15T12:48:05.369Z,83.08
2018-12-15T12:49:05.360Z,83.81
2018-12-15T12:50:05.354Z,83.12
2018-12-15T12:51:05.342Z,83.40
2018-12-15T12:52:05.330Z,83.29